Item Display Status Humidity-temperature Sensor

Elevation Above Sea Level: 3 m

 

Deployed Sensor

  • Serial Number: 20351123
  • NDBC Property Number: 43293
  • Start Date: 4/17/2020 (10:35:43 Z)
  • End Date: Currently Active
Relative Humidity [%]     6 entries per hour
Showing data from 9/29/2022 (14:00:00 Z) to 9/28/2022 (00:00:01 Z)
Previous Next [ Day | 3-Days | 7-Days ]
First Last
Prev [ Day | 3-Days | 7-Days ] Next
First Last

Start Time:     :
End Time:     :     
Time (in GMT) :00 :50 :40 :30 :20 :10
Previous Next [ Day | 3-Days | 7-Days ]
First Last
Prev [ Day | 3-Days | 7-Days ] Next
First Last


123 => good data
MM => data is determined as missing
-- => data not received/configured
Back to Top Back to Top
9/29/2022 14:00 to 13:10 97.33 97.40 97.56 97.66 97.64 97.54
9/29/2022 13:00 to 12:10 97.31 97.60 97.50 97.81 98.03 98.38
9/29/2022 12:00 to 11:10 98.26 98.34 98.22 97.79 97.48 96.84
9/29/2022 11:00 to 10:10 96.06 94.89 93.27 91.99 92.14 92.11
9/29/2022 10:00 to 9:10 92.03 91.99 91.42 91.03 91.52 92.30
9/29/2022 09:00 to 8:10 93.04 93.84 95.14 96.33 97.74 98.48
9/29/2022 08:00 to 7:10 98.57 98.65 98.57 98.63 98.71 98.57
9/29/2022 07:00 to 6:10 98.63 98.59 98.51 98.55 98.40 97.64
9/29/2022 06:00 to 5:10 97.29 96.45 95.32 93.96 92.85 91.81
9/29/2022 05:00 to 4:10 91.97 92.26 92.34 92.67 93.04 93.31
9/29/2022 04:00 to 3:10 93.31 93.39 93.35 93.68 93.51 93.33
9/29/2022 03:00 to 2:10 93.04 92.87 92.71 92.61 93.14 92.98
9/29/2022 02:00 to 1:10 92.98 92.36 91.11 89.16 88.58 88.58
9/29/2022 01:00 to 0:10 88.64 89.13 88.99 89.40 89.59 89.87
9/29/2022 00:00 to 23:10 89.67 89.73 89.59 89.44 89.46 89.50
9/28/2022 23:00 to 22:10 89.48 89.57 89.77 89.42 89.44 89.67
9/28/2022 22:00 to 21:10 89.92 90.20 90.45 90.53 90.49 91.03
9/28/2022 21:00 to 20:10 91.72 92.50 92.65 92.57 91.99 91.70
9/28/2022 20:00 to 19:10 90.49 89.38 89.28 90.04 90.53 91.09
9/28/2022 19:00 to 18:10 91.03 90.53 91.40 92.01 92.44 92.05
9/28/2022 18:00 to 17:10 91.48 90.98 91.13 91.25 92.05 92.22
9/28/2022 17:00 to 16:10 92.42 92.01 91.29 90.10 88.25 88.09
9/28/2022 16:00 to 15:10 88.54 88.44 89.01 89.73 90.27 90.74
9/28/2022 15:00 to 14:10 91.19 91.23 91.72 91.95 92.07 92.03
9/28/2022 14:00 to 13:10 91.87 91.46 91.27 90.70 90.47 90.82
9/28/2022 13:00 to 12:10 91.17 91.15 91.62 91.97 92.18 92.50
9/28/2022 12:00 to 11:10 92.71 92.61 92.42 92.75 92.94 93.24
9/28/2022 11:00 to 10:10 93.10 93.55 93.35 93.39 93.31 93.29
9/28/2022 10:00 to 9:10 93.45 93.24 92.69 92.79 93.04 93.22
9/28/2022 09:00 to 8:10 93.18 93.22 93.55 93.53 93.18 92.79
9/28/2022 08:00 to 7:10 92.69 92.65 92.36 92.75 92.57 92.77
9/28/2022 07:00 to 6:10 92.59 92.48 92.18 92.79 93.02 92.90
9/28/2022 06:00 to 5:10 93.08 92.96 91.85 90.92 90.82 90.47
9/28/2022 05:00 to 4:10 90.00 90.43 90.63 90.51 90.57 90.35
9/28/2022 04:00 to 3:10 89.09 89.01 89.61 89.94 89.92 90.18
9/28/2022 03:00 to 2:10 90.66 91.89 92.24 92.34 92.05 92.18
9/28/2022 02:00 to 1:10 91.56 90.27 88.48 88.52 89.13 89.18
9/28/2022 01:00 to 0:10 89.34 89.92 91.03 91.79 92.36 93.35

 

 

 

Air Temperature [°C]     6 entries per hour
Showing data from 9/29/2022 (14:00:00 Z) to 9/28/2022 (00:00:01 Z)
Previous Next [ Day | 3-Days | 7-Days ]
First Last
Prev [ Day | 3-Days | 7-Days ] Next
First Last

Start Time:     :
End Time:     :     
Time (in GMT) :00 :50 :40 :30 :20 :10
Previous Next [ Day | 3-Days | 7-Days ]
First Last
Prev [ Day | 3-Days | 7-Days ] Next
First Last


123 => good data
MM => data is determined as missing
-- => data not received/configured
Back to Top Back to Top
9/29/2022 14:00 to 13:10 25.03 24.96 25.02 24.91 25.07 25.05
9/29/2022 13:00 to 12:10 25.06 24.74 25.00 24.99 24.83 24.60
9/29/2022 12:00 to 11:10 24.63 24.60 24.68 24.84 24.88 24.91
9/29/2022 11:00 to 10:10 25.03 25.17 25.43 25.62 25.48 25.49
9/29/2022 10:00 to 9:10 25.41 25.33 25.46 25.43 25.20 25.41
9/29/2022 09:00 to 8:10 25.29 25.43 25.02 24.99 24.44 24.34
9/29/2022 08:00 to 7:10 24.75 24.85 24.70 24.58 24.44 24.43
9/29/2022 07:00 to 6:10 24.35 24.25 24.17 24.28 24.23 24.52
9/29/2022 06:00 to 5:10 24.58 24.70 25.00 25.00 25.52 25.62
9/29/2022 05:00 to 4:10 25.37 25.36 25.28 25.28 25.21 25.17
9/29/2022 04:00 to 3:10 25.31 25.19 25.12 25.17 25.13 25.03
9/29/2022 03:00 to 2:10 25.16 25.25 25.20 25.00 24.88 25.15
9/29/2022 02:00 to 1:10 25.07 25.07 25.15 25.49 25.50 25.66
9/29/2022 01:00 to 0:10 25.47 25.54 25.42 25.35 25.35 25.50
9/29/2022 00:00 to 23:10 25.60 25.40 25.44 25.24 25.39 25.30
9/28/2022 23:00 to 22:10 25.40 25.39 25.41 25.39 25.48 25.27
9/28/2022 22:00 to 21:10 25.35 25.40 25.27 25.33 25.43 25.22
9/28/2022 21:00 to 20:10 25.32 25.16 25.09 25.09 25.26 25.19
9/28/2022 20:00 to 19:10 25.60 25.54 25.40 25.37 25.15 25.19
9/28/2022 19:00 to 18:10 25.26 25.42 25.13 25.19 24.86 25.22
9/28/2022 18:00 to 17:10 25.23 25.44 25.27 25.16 25.20 25.06
9/28/2022 17:00 to 16:10 25.09 25.16 25.28 25.41 25.74 25.24
9/28/2022 16:00 to 15:10 25.36 25.35 25.33 25.09 25.23 25.05
9/28/2022 15:00 to 14:10 25.15 24.98 24.96 24.81 24.67 24.89
9/28/2022 14:00 to 13:10 24.65 25.06 25.01 25.27 25.00 24.76
9/28/2022 13:00 to 12:10 24.90 24.72 24.67 24.57 24.60 24.75
9/28/2022 12:00 to 11:10 24.57 24.51 24.76 24.41 24.64 24.49
9/28/2022 11:00 to 10:10 24.50 24.48 24.48 24.50 24.66 24.42
9/28/2022 10:00 to 9:10 24.61 24.55 24.72 24.59 24.52 24.49
9/28/2022 09:00 to 8:10 24.47 24.65 24.52 24.81 24.89 24.86
9/28/2022 08:00 to 7:10 24.81 24.79 24.75 25.07 24.84 24.77
9/28/2022 07:00 to 6:10 24.83 24.95 25.01 24.88 24.78 25.06
9/28/2022 06:00 to 5:10 24.85 24.97 25.18 25.35 25.18 25.31
9/28/2022 05:00 to 4:10 25.36 24.95 25.15 25.13 25.22 25.17
9/28/2022 04:00 to 3:10 25.28 25.05 25.24 25.06 25.17 24.94
9/28/2022 03:00 to 2:10 24.88 24.86 24.91 25.09 25.01 24.99
9/28/2022 02:00 to 1:10 25.00 24.99 25.61 25.20 25.04 25.33
9/28/2022 01:00 to 0:10 24.95 24.95 24.94 24.75 24.66 24.49